sensor_id;sensor_type;location;lat;lon;timestamp;temperature;humidity
20070;DHT22;10195;50.868;4.382;2023-09-19T00:01:06;16.30;99.90
20070;DHT22;10195;50.868;4.382;2023-09-19T00:03:37;16.20;99.90
20070;DHT22;10195;50.868;4.382;2023-09-19T00:06:03;16.30;99.90
20070;DHT22;10195;50.868;4.382;2023-09-19T00:08:36;16.30;99.90
20070;DHT22;10195;50.868;4.382;2023-09-19T00:11:01;16.30;99.90
20070;DHT22;10195;50.868;4.382;2023-09-19T00:13:32;16.30;99.90
20070;DHT22;10195;50.868;4.382;2023-09-19T00:15:59;16.30;99.90
20070;DHT22;10195;50.868;4.382;2023-09-19T00:18:25;16.40;99.90
20070;DHT22;10195;50.868;4.382;2023-09-19T00:21:01;16.50;99.90
20070;DHT22;10195;50.868;4.382;2023-09-19T00:23:27;16.40;99.90
20070;DHT22;10195;50.868;4.382;2023-09-19T00:25:54;16.40;99.90
20070;DHT22;10195;50.868;4.382;2023-09-19T00:28:23;16.40;99.90
20070;DHT22;10195;50.868;4.382;2023-09-19T00:30:48;16.40;99.90
20070;DHT22;10195;50.868;4.382;2023-09-19T00:33:21;16.40;99.90
20070;DHT22;10195;50.868;4.382;2023-09-19T00:35:54;16.30;99.90
20070;DHT22;10195;50.868;4.382;2023-09-19T00:38:21;16.30;99.90
20070;DHT22;10195;50.868;4.382;2023-09-19T00:40:50;16.20;99.90
20070;DHT22;10195;50.868;4.382;2023-09-19T00:43:22;16.20;99.90
20070;DHT22;10195;50.868;4.382;2023-09-19T00:45:51;16.30;99.90
20070;DHT22;10195;50.868;4.382;2023-09-19T00:48:17;16.30;99.90
20070;DHT22;10195;50.868;4.382;2023-09-19T00:50:46;16.30;99.90
20070;DHT22;10195;50.868;4.382;2023-09-19T00:53:14;16.20;99.90
20070;DHT22;10195;50.868;4.382;2023-09-19T00:55:40;16.20;99.90
20070;DHT22;10195;50.868;4.382;2023-09-19T00:58:08;16.20;99.90
20070;DHT22;10195;50.868;4.382;2023-09-19T01:00:35;16.20;99.90
20070;DHT22;10195;50.868;4.382;2023-09-19T01:03:01;16.20;99.90
20070;DHT22;10195;50.868;4.382;2023-09-19T01:05:27;16.20;99.90
20070;DHT22;10195;50.868;4.382;2023-09-19T01:07:53;16.20;99.90
20070;DHT22;10195;50.868;4.382;2023-09-19T01:10:20;16.20;99.90
20070;DHT22;10195;50.868;4.382;2023-09-19T01:31:10;16.10;99.90
20070;DHT22;10195;50.868;4.382;2023-09-19T01:33:59;16.10;99.90
20070;DHT22;10195;50.868;4.382;2023-09-19T01:36:35;16.00;99.90
20070;DHT22;10195;50.868;4.382;2023-09-19T01:39:07;16.00;99.90
20070;DHT22;10195;50.868;4.382;2023-09-19T01:44:12;16.10;99.90
20070;DHT22;10195;50.868;4.382;2023-09-19T01:46:44;16.10;99.90
20070;DHT22;10195;50.868;4.382;2023-09-19T01:49:18;16.00;99.90
20070;DHT22;10195;50.868;4.382;2023-09-19T01:52:04;15.90;99.90
20070;DHT22;10195;50.868;4.382;2023-09-19T01:54:36;15.90;99.90
20070;DHT22;10195;50.868;4.382;2023-09-19T01:57:22;16.00;99.90
20070;DHT22;10195;50.868;4.382;2023-09-19T02:00:03;16.00;99.90
20070;DHT22;10195;50.868;4.382;2023-09-19T02:02:38;15.90;99.90
20070;DHT22;10195;50.868;4.382;2023-09-19T02:05:05;15.90;99.90
20070;DHT22;10195;50.868;4.382;2023-09-19T02:07:31;15.90;99.90
20070;DHT22;10195;50.868;4.382;2023-09-19T02:10:01;15.90;99.90
20070;DHT22;10195;50.868;4.382;2023-09-19T02:12:27;15.90;99.90
20070;DHT22;10195;50.868;4.382;2023-09-19T02:14:53;15.90;99.90
20070;DHT22;10195;50.868;4.382;2023-09-19T02:17:18;16.00;99.90
20070;DHT22;10195;50.868;4.382;2023-09-19T02:19:45;16.00;99.90
20070;DHT22;10195;50.868;4.382;2023-09-19T02:22:10;16.00;99.90
20070;DHT22;10195;50.868;4.382;2023-09-19T02:24:39;16.00;99.90
20070;DHT22;10195;50.868;4.382;2023-09-19T02:27:05;16.00;99.90
20070;DHT22;10195;50.868;4.382;2023-09-19T02:29:31;16.00;99.90
20070;DHT22;10195;50.868;4.382;2023-09-19T02:31:57;16.00;99.90
20070;DHT22;10195;50.868;4.382;2023-09-19T02:34:23;16.00;99.90
20070;DHT22;10195;50.868;4.382;2023-09-19T02:36:49;16.00;99.90
20070;DHT22;10195;50.868;4.382;2023-09-19T02:39:14;16.00;99.90
20070;DHT22;10195;50.868;4.382;2023-09-19T02:41:40;16.10;99.90
20070;DHT22;10195;50.868;4.382;2023-09-19T02:44:07;16.10;99.90
20070;DHT22;10195;50.868;4.382;2023-09-19T02:46:34;16.10;99.90
20070;DHT22;10195;50.868;4.382;2023-09-19T02:49:02;16.10;99.90
20070;DHT22;10195;50.868;4.382;2023-09-19T02:51:29;16.10;99.90
20070;DHT22;10195;50.868;4.382;2023-09-19T02:53:54;16.10;99.90
20070;DHT22;10195;50.868;4.382;2023-09-19T02:56:20;16.10;99.90
20070;DHT22;10195;50.868;4.382;2023-09-19T02:58:46;16.00;99.90
20070;DHT22;10195;50.868;4.382;2023-09-19T03:01:11;15.90;99.90
20070;DHT22;10195;50.868;4.382;2023-09-19T03:03:37;15.80;99.90
20070;DHT22;10195;50.868;4.382;2023-09-19T03:06:07;15.90;99.90
20070;DHT22;10195;50.868;4.382;2023-09-19T03:08:35;15.80;99.90
20070;DHT22;10195;50.868;4.382;2023-09-19T03:11:03;15.90;99.90
20070;DHT22;10195;50.868;4.382;2023-09-19T03:13:29;15.90;99.90
20070;DHT22;10195;50.868;4.382;2023-09-19T03:15:56;15.90;99.90
20070;DHT22;10195;50.868;4.382;2023-09-19T03:18:24;16.00;99.90
20070;DHT22;10195;50.868;4.382;2023-09-19T03:20:55;16.00;99.90
20070;DHT22;10195;50.868;4.382;2023-09-19T03:23:22;16.00;99.90
20070;DHT22;10195;50.868;4.382;2023-09-19T03:25:47;16.10;99.90
20070;DHT22;10195;50.868;4.382;2023-09-19T03:28:13;16.00;99.90
20070;DHT22;10195;50.868;4.382;2023-09-19T03:30:41;16.00;99.90
20070;DHT22;10195;50.868;4.382;2023-09-19T03:33:06;16.00;99.90
20070;DHT22;10195;50.868;4.382;2023-09-19T03:35:32;15.90;99.90
20070;DHT22;10195;50.868;4.382;2023-09-19T03:37:58;15.70;99.90
20070;DHT22;10195;50.868;4.382;2023-09-19T03:40:23;15.70;99.90
20070;DHT22;10195;50.868;4.382;2023-09-19T03:42:50;15.80;99.90
20070;DHT22;10195;50.868;4.382;2023-09-19T03:45:16;15.70;99.90
20070;DHT22;10195;50.868;4.382;2023-09-19T03:47:44;15.70;99.90
20070;DHT22;10195;50.868;4.382;2023-09-19T03:50:12;15.60;99.90
20070;DHT22;10195;50.868;4.382;2023-09-19T03:52:40;15.50;99.90
20070;DHT22;10195;50.868;4.382;2023-09-19T03:55:06;15.40;99.90
20070;DHT22;10195;50.868;4.382;2023-09-19T03:57:32;15.50;99.90
20070;DHT22;10195;50.868;4.382;2023-09-19T04:00:02;15.40;99.90
20070;DHT22;10195;50.868;4.382;2023-09-19T04:02:27;15.50;99.90
20070;DHT22;10195;50.868;4.382;2023-09-19T04:04:58;15.40;99.90
20070;DHT22;10195;50.868;4.382;2023-09-19T04:07:24;15.40;99.90
20070;DHT22;10195;50.868;4.382;2023-09-19T04:09:51;15.40;99.90
20070;DHT22;10195;50.868;4.382;2023-09-19T04:12:19;15.40;99.90
20070;DHT22;10195;50.868;4.382;2023-09-19T04:14:44;15.40;99.90
20070;DHT22;10195;50.868;4.382;2023-09-19T04:17:10;15.30;99.90
20070;DHT22;10195;50.868;4.382;2023-09-19T04:19:36;15.40;99.90
20070;DHT22;10195;50.868;4.382;2023-09-19T04:22:02;15.40;99.90
20070;DHT22;10195;50.868;4.382;2023-09-19T04:24:29;15.40;99.90
20070;DHT22;10195;50.868;4.382;2023-09-19T04:26:55;15.30;99.90
20070;DHT22;10195;50.868;4.382;2023-09-19T04:29:20;15.30;99.90
20070;DHT22;10195;50.868;4.382;2023-09-19T04:31:46;15.30;99.90
20070;DHT22;10195;50.868;4.382;2023-09-19T04:34:12;15.30;99.90
20070;DHT22;10195;50.868;4.382;2023-09-19T04:36:41;15.30;99.90
20070;DHT22;10195;50.868;4.382;2023-09-19T04:39:07;15.30;99.90
20070;DHT22;10195;50.868;4.382;2023-09-19T04:41:33;15.30;99.90
20070;DHT22;10195;50.868;4.382;2023-09-19T04:43:59;15.20;99.90
20070;DHT22;10195;50.868;4.382;2023-09-19T04:46:25;15.30;99.90
20070;DHT22;10195;50.868;4.382;2023-09-19T04:48:51;15.30;99.90
20070;DHT22;10195;50.868;4.382;2023-09-19T04:51:16;15.30;99.90
20070;DHT22;10195;50.868;4.382;2023-09-19T04:53:44;15.30;99.90
20070;DHT22;10195;50.868;4.382;2023-09-19T04:56:09;15.20;99.90
20070;DHT22;10195;50.868;4.382;2023-09-19T04:58:35;15.30;99.90
20070;DHT22;10195;50.868;4.382;2023-09-19T05:01:01;15.30;99.90
20070;DHT22;10195;50.868;4.382;2023-09-19T05:03:27;15.20;99.90
20070;DHT22;10195;50.868;4.382;2023-09-19T05:05:53;15.20;99.90
20070;DHT22;10195;50.868;4.382;2023-09-19T05:08:18;15.20;99.90
20070;DHT22;10195;50.868;4.382;2023-09-19T05:10:44;15.20;99.90
20070;DHT22;10195;50.868;4.382;2023-09-19T05:13:10;15.10;99.90
20070;DHT22;10195;50.868;4.382;2023-09-19T05:15:37;15.10;99.90
20070;DHT22;10195;50.868;4.382;2023-09-19T05:18:03;15.10;99.90
20070;DHT22;10195;50.868;4.382;2023-09-19T05:20:29;15.00;99.90
20070;DHT22;10195;50.868;4.382;2023-09-19T05:22:58;15.00;99.90
20070;DHT22;10195;50.868;4.382;2023-09-19T05:25:27;15.00;99.90
20070;DHT22;10195;50.868;4.382;2023-09-19T05:27:57;15.00;99.90
20070;DHT22;10195;50.868;4.382;2023-09-19T05:30:26;15.10;99.90
20070;DHT22;10195;50.868;4.382;2023-09-19T05:32:54;15.10;99.90
20070;DHT22;10195;50.868;4.382;2023-09-19T05:35:21;15.20;99.90
20070;DHT22;10195;50.868;4.382;2023-09-19T05:37:48;15.10;99.90
20070;DHT22;10195;50.868;4.382;2023-09-19T05:40:17;15.20;99.90
20070;DHT22;10195;50.868;4.382;2023-09-19T05:42:43;15.20;99.90
20070;DHT22;10195;50.868;4.382;2023-09-19T05:45:10;15.20;99.90
20070;DHT22;10195;50.868;4.382;2023-09-19T05:47:42;15.20;99.90
20070;DHT22;10195;50.868;4.382;2023-09-19T05:50:09;15.30;99.90
20070;DHT22;10195;50.868;4.382;2023-09-19T05:52:38;15.30;99.90
20070;DHT22;10195;50.868;4.382;2023-09-19T05:55:05;15.30;99.90
20070;DHT22;10195;50.868;4.382;2023-09-19T05:57:32;15.40;99.90
20070;DHT22;10195;50.868;4.382;2023-09-19T05:59:58;15.40;99.90
20070;DHT22;10195;50.868;4.382;2023-09-19T06:02:23;15.40;99.90
20070;DHT22;10195;50.868;4.382;2023-09-19T06:04:52;15.40;99.90
20070;DHT22;10195;50.868;4.382;2023-09-19T06:07:18;15.50;99.90
20070;DHT22;10195;50.868;4.382;2023-09-19T06:09:44;15.50;99.90
20070;DHT22;10195;50.868;4.382;2023-09-19T06:12:09;15.60;99.90
20070;DHT22;10195;50.868;4.382;2023-09-19T06:14:39;15.50;99.90
20070;DHT22;10195;50.868;4.382;2023-09-19T06:17:05;15.60;99.90
20070;DHT22;10195;50.868;4.382;2023-09-19T06:19:31;15.70;99.90
20070;DHT22;10195;50.868;4.382;2023-09-19T06:21:58;15.80;99.90
20070;DHT22;10195;50.868;4.382;2023-09-19T06:24:25;15.80;99.90
20070;DHT22;10195;50.868;4.382;2023-09-19T06:26:51;15.90;99.90
20070;DHT22;10195;50.868;4.382;2023-09-19T06:29:18;16.10;99.90
20070;DHT22;10195;50.868;4.382;2023-09-19T06:31:46;16.20;99.90
20070;DHT22;10195;50.868;4.382;2023-09-19T06:34:12;16.10;99.90
20070;DHT22;10195;50.868;4.382;2023-09-19T06:36:40;16.10;99.90
20070;DHT22;10195;50.868;4.382;2023-09-19T06:39:06;16.20;99.90
20070;DHT22;10195;50.868;4.382;2023-09-19T06:41:36;16.20;99.90
20070;DHT22;10195;50.868;4.382;2023-09-19T06:44:03;16.30;99.90
20070;DHT22;10195;50.868;4.382;2023-09-19T06:46:30;16.30;99.90
20070;DHT22;10195;50.868;4.382;2023-09-19T06:49:00;16.20;99.90
20070;DHT22;10195;50.868;4.382;2023-09-19T06:51:28;16.30;99.90
20070;DHT22;10195;50.868;4.382;2023-09-19T06:53:55;16.30;99.90
20070;DHT22;10195;50.868;4.382;2023-09-19T06:56:22;16.30;99.90
20070;DHT22;10195;50.868;4.382;2023-09-19T06:58:50;16.30;99.90
20070;DHT22;10195;50.868;4.382;2023-09-19T07:01:15;16.40;99.90
20070;DHT22;10195;50.868;4.382;2023-09-19T07:03:41;16.50;99.90
20070;DHT22;10195;50.868;4.382;2023-09-19T07:06:07;16.60;99.90
20070;DHT22;10195;50.868;4.382;2023-09-19T07:08:34;16.60;99.90
20070;DHT22;10195;50.868;4.382;2023-09-19T07:11:00;16.80;99.90
20070;DHT22;10195;50.868;4.382;2023-09-19T07:13:26;16.90;99.90
20070;DHT22;10195;50.868;4.382;2023-09-19T07:15:52;17.10;99.90
20070;DHT22;10195;50.868;4.382;2023-09-19T07:18:18;17.10;99.90
20070;DHT22;10195;50.868;4.382;2023-09-19T07:20:44;17.30;99.90
20070;DHT22;10195;50.868;4.382;2023-09-19T07:23:20;17.40;99.90
20070;DHT22;10195;50.868;4.382;2023-09-19T07:25:48;17.90;99.90
20070;DHT22;10195;50.868;4.382;2023-09-19T07:28:14;18.10;99.90
20070;DHT22;10195;50.868;4.382;2023-09-19T07:30:40;18.40;99.90
20070;DHT22;10195;50.868;4.382;2023-09-19T07:33:09;19.00;99.90
20070;DHT22;10195;50.868;4.382;2023-09-19T07:35:38;19.20;99.90
20070;DHT22;10195;50.868;4.382;2023-09-19T07:38:06;19.30;99.90
20070;DHT22;10195;50.868;4.382;2023-09-19T07:40:31;19.40;99.90
20070;DHT22;10195;50.868;4.382;2023-09-19T07:42:57;19.30;99.90
20070;DHT22;10195;50.868;4.382;2023-09-19T07:45:30;19.30;99.90
20070;DHT22;10195;50.868;4.382;2023-09-19T07:47:56;19.30;99.90
20070;DHT22;10195;50.868;4.382;2023-09-19T07:50:22;19.10;99.90
20070;DHT22;10195;50.868;4.382;2023-09-19T07:52:48;19.20;99.90
20070;DHT22;10195;50.868;4.382;2023-09-19T07:55:16;19.50;99.90
20070;DHT22;10195;50.868;4.382;2023-09-19T07:57:43;19.70;99.90
20070;DHT22;10195;50.868;4.382;2023-09-19T08:00:09;19.70;99.90
20070;DHT22;10195;50.868;4.382;2023-09-19T08:02:39;19.70;99.90
20070;DHT22;10195;50.868;4.382;2023-09-19T08:05:06;19.80;99.90
20070;DHT22;10195;50.868;4.382;2023-09-19T08:07:38;19.90;99.90
20070;DHT22;10195;50.868;4.382;2023-09-19T08:10:07;20.50;99.90
20070;DHT22;10195;50.868;4.382;2023-09-19T08:12:36;20.70;99.90
20070;DHT22;10195;50.868;4.382;2023-09-19T08:15:03;20.60;99.90
20070;DHT22;10195;50.868;4.382;2023-09-19T08:17:28;20.70;99.90
20070;DHT22;10195;50.868;4.382;2023-09-19T08:19:54;20.80;99.90
20070;DHT22;10195;50.868;4.382;2023-09-19T08:22:20;20.90;99.90
20070;DHT22;10195;50.868;4.382;2023-09-19T08:24:49;20.50;99.90
20070;DHT22;10195;50.868;4.382;2023-09-19T08:27:14;20.60;99.90
20070;DHT22;10195;50.868;4.382;2023-09-19T08:29:40;20.60;99.90
20070;DHT22;10195;50.868;4.382;2023-09-19T08:32:07;20.30;99.90
20070;DHT22;10195;50.868;4.382;2023-09-19T08:34:33;20.20;99.90
20070;DHT22;10195;50.868;4.382;2023-09-19T08:36:59;20.30;99.90
20070;DHT22;10195;50.868;4.382;2023-09-19T08:39:25;20.50;99.90
20070;DHT22;10195;50.868;4.382;2023-09-19T08:42:01;20.50;99.90
20070;DHT22;10195;50.868;4.382;2023-09-19T08:44:27;20.70;99.90
20070;DHT22;10195;50.868;4.382;2023-09-19T08:47:10;21.10;99.90
20070;DHT22;10195;50.868;4.382;2023-09-19T08:50:09;21.10;99.90
20070;DHT22;10195;50.868;4.382;2023-09-19T08:52:43;21.10;99.90
20070;DHT22;10195;50.868;4.382;2023-09-19T08:55:13;21.30;99.90
20070;DHT22;10195;50.868;4.382;2023-09-19T08:57:40;21.40;99.90
20070;DHT22;10195;50.868;4.382;2023-09-19T09:00:08;21.20;99.90
20070;DHT22;10195;50.868;4.382;2023-09-19T09:02:38;21.00;99.90
20070;DHT22;10195;50.868;4.382;2023-09-19T09:05:11;21.00;99.90
20070;DHT22;10195;50.868;4.382;2023-09-19T09:07:43;21.40;99.90
20070;DHT22;10195;50.868;4.382;2023-09-19T09:10:09;21.60;99.90
20070;DHT22;10195;50.868;4.382;2023-09-19T09:12:35;21.50;99.90
20070;DHT22;10195;50.868;4.382;2023-09-19T09:15:05;21.70;99.90
20070;DHT22;10195;50.868;4.382;2023-09-19T09:17:31;22.10;99.90
20070;DHT22;10195;50.868;4.382;2023-09-19T09:19:57;22.20;99.90
20070;DHT22;10195;50.868;4.382;2023-09-19T09:22:22;21.60;99.90
20070;DHT22;10195;50.868;4.382;2023-09-19T09:24:57;21.50;99.90
20070;DHT22;10195;50.868;4.382;2023-09-19T09:27:31;21.00;99.90
20070;DHT22;10195;50.868;4.382;2023-09-19T09:29:59;21.10;99.90
20070;DHT22;10195;50.868;4.382;2023-09-19T09:32:30;21.00;99.90
20070;DHT22;10195;50.868;4.382;2023-09-19T09:35:00;20.80;99.90
20070;DHT22;10195;50.868;4.382;2023-09-19T09:37:27;20.50;99.90
20070;DHT22;10195;50.868;4.382;2023-09-19T09:40:01;20.50;99.90
20070;DHT22;10195;50.868;4.382;2023-09-19T09:42:42;20.30;99.90
20070;DHT22;10195;50.868;4.382;2023-09-19T09:45:23;20.40;99.90
20070;DHT22;10195;50.868;4.382;2023-09-19T09:47:59;20.40;99.90
20070;DHT22;10195;50.868;4.382;2023-09-19T09:50:35;20.00;99.90
20070;DHT22;10195;50.868;4.382;2023-09-19T09:53:34;20.30;99.90
20070;DHT22;10195;50.868;4.382;2023-09-19T09:58:36;19.90;99.90
20070;DHT22;10195;50.868;4.382;2023-09-19T10:01:04;19.80;99.90
20070;DHT22;10195;50.868;4.382;2023-09-19T10:03:39;19.90;99.90
20070;DHT22;10195;50.868;4.382;2023-09-19T10:06:12;20.20;99.90
20070;DHT22;10195;50.868;4.382;2023-09-19T10:09:07;20.30;99.90
20070;DHT22;10195;50.868;4.382;2023-09-19T10:11:43;20.20;99.90
20070;DHT22;10195;50.868;4.382;2023-09-19T10:14:11;19.90;99.90
20070;DHT22;10195;50.868;4.382;2023-09-19T10:16:41;19.80;99.90
20070;DHT22;10195;50.868;4.382;2023-09-19T10:19:11;19.90;99.90
20070;DHT22;10195;50.868;4.382;2023-09-19T10:21:40;20.10;99.90
20070;DHT22;10195;50.868;4.382;2023-09-19T10:24:06;20.60;99.90
20070;DHT22;10195;50.868;4.382;2023-09-19T10:26:35;20.60;99.90
20070;DHT22;10195;50.868;4.382;2023-09-19T10:29:01;20.60;99.90
20070;DHT22;10195;50.868;4.382;2023-09-19T10:31:29;20.70;99.90
20070;DHT22;10195;50.868;4.382;2023-09-19T10:34:03;21.00;99.90
20070;DHT22;10195;50.868;4.382;2023-09-19T10:36:33;21.10;99.90
20070;DHT22;10195;50.868;4.382;2023-09-19T10:39:02;21.20;99.90
20070;DHT22;10195;50.868;4.382;2023-09-19T10:41:32;21.30;99.90
20070;DHT22;10195;50.868;4.382;2023-09-19T10:44:03;21.30;99.90
20070;DHT22;10195;50.868;4.382;2023-09-19T10:46:34;21.30;99.90
20070;DHT22;10195;50.868;4.382;2023-09-19T10:49:01;21.10;99.90
20070;DHT22;10195;50.868;4.382;2023-09-19T10:51:39;21.00;99.90
20070;DHT22;10195;50.868;4.382;2023-09-19T10:54:11;21.00;99.90
20070;DHT22;10195;50.868;4.382;2023-09-19T10:56:42;20.80;99.90
20070;DHT22;10195;50.868;4.382;2023-09-19T10:59:11;20.80;99.90
20070;DHT22;10195;50.868;4.382;2023-09-19T11:01:55;21.00;99.90
20070;DHT22;10195;50.868;4.382;2023-09-19T11:04:26;21.30;99.90
20070;DHT22;10195;50.868;4.382;2023-09-19T11:07:02;21.30;99.90
20070;DHT22;10195;50.868;4.382;2023-09-19T11:09:52;21.20;99.90
20070;DHT22;10195;50.868;4.382;2023-09-19T11:24:28;21.60;99.90
20070;DHT22;10195;50.868;4.382;2023-09-19T11:27:10;21.60;99.90
20070;DHT22;10195;50.868;4.382;2023-09-19T11:29:39;21.90;99.90
20070;DHT22;10195;50.868;4.382;2023-09-19T11:32:06;21.70;99.90
20070;DHT22;10195;50.868;4.382;2023-09-19T11:34:44;21.60;99.90
20070;DHT22;10195;50.868;4.382;2023-09-19T11:39:40;21.30;99.90
20070;DHT22;10195;50.868;4.382;2023-09-19T11:42:46;21.30;99.90
20070;DHT22;10195;50.868;4.382;2023-09-19T11:48:18;21.30;99.90
20070;DHT22;10195;50.868;4.382;2023-09-19T11:50:45;21.20;99.90
20070;DHT22;10195;50.868;4.382;2023-09-19T11:53:12;21.10;99.90
20070;DHT22;10195;50.868;4.382;2023-09-19T11:55:41;21.10;99.90
20070;DHT22;10195;50.868;4.382;2023-09-19T11:58:09;21.30;99.90
20070;DHT22;10195;50.868;4.382;2023-09-19T12:00:39;21.30;99.90
20070;DHT22;10195;50.868;4.382;2023-09-19T12:03:10;21.40;99.90
20070;DHT22;10195;50.868;4.382;2023-09-19T12:05:37;21.40;99.90
20070;DHT22;10195;50.868;4.382;2023-09-19T12:08:04;21.30;99.90
20070;DHT22;10195;50.868;4.382;2023-09-19T12:10:33;21.30;99.90
20070;DHT22;10195;50.868;4.382;2023-09-19T12:12:59;21.20;99.90
20070;DHT22;10195;50.868;4.382;2023-09-19T12:15:26;21.20;99.90
20070;DHT22;10195;50.868;4.382;2023-09-19T12:17:59;21.30;99.90
20070;DHT22;10195;50.868;4.382;2023-09-19T12:20:25;21.40;99.90
20070;DHT22;10195;50.868;4.382;2023-09-19T12:22:51;21.40;99.90
20070;DHT22;10195;50.868;4.382;2023-09-19T12:25:16;21.30;99.90
20070;DHT22;10195;50.868;4.382;2023-09-19T12:27:47;21.40;99.90
20070;DHT22;10195;50.868;4.382;2023-09-19T12:30:15;21.50;99.90
20070;DHT22;10195;50.868;4.382;2023-09-19T12:32:43;21.40;99.90
20070;DHT22;10195;50.868;4.382;2023-09-19T12:35:10;21.30;99.90
20070;DHT22;10195;50.868;4.382;2023-09-19T12:37:44;21.50;99.90
20070;DHT22;10195;50.868;4.382;2023-09-19T12:40:19;21.50;99.90
20070;DHT22;10195;50.868;4.382;2023-09-19T12:42:52;21.30;99.90
20070;DHT22;10195;50.868;4.382;2023-09-19T12:45:20;21.10;99.90
20070;DHT22;10195;50.868;4.382;2023-09-19T12:48:21;21.00;99.90
20070;DHT22;10195;50.868;4.382;2023-09-19T12:51:05;21.00;99.90
20070;DHT22;10195;50.868;4.382;2023-09-19T12:53:38;21.20;99.90
20070;DHT22;10195;50.868;4.382;2023-09-19T12:56:15;21.30;99.90
20070;DHT22;10195;50.868;4.382;2023-09-19T12:58:55;21.30;99.90
20070;DHT22;10195;50.868;4.382;2023-09-19T13:01:22;21.20;99.90
20070;DHT22;10195;50.868;4.382;2023-09-19T13:04:16;21.20;99.90
20070;DHT22;10195;50.868;4.382;2023-09-19T13:06:48;21.40;99.90
20070;DHT22;10195;50.868;4.382;2023-09-19T13:09:15;21.50;99.90
20070;DHT22;10195;50.868;4.382;2023-09-19T13:11:41;21.50;99.90
20070;DHT22;10195;50.868;4.382;2023-09-19T13:14:26;21.50;99.90
20070;DHT22;10195;50.868;4.382;2023-09-19T13:17:07;21.40;99.90
20070;DHT22;10195;50.868;4.382;2023-09-19T13:22:44;21.50;99.90
20070;DHT22;10195;50.868;4.382;2023-09-19T13:25:20;21.60;99.90
20070;DHT22;10195;50.868;4.382;2023-09-19T13:27:51;21.70;99.90
20070;DHT22;10195;50.868;4.382;2023-09-19T13:30:20;21.80;99.90
20070;DHT22;10195;50.868;4.382;2023-09-19T13:32:45;21.70;99.90
20070;DHT22;10195;50.868;4.382;2023-09-19T13:35:13;21.90;99.90
20070;DHT22;10195;50.868;4.382;2023-09-19T13:37:41;21.80;99.90
20070;DHT22;10195;50.868;4.382;2023-09-19T13:40:09;22.00;99.90
20070;DHT22;10195;50.868;4.382;2023-09-19T13:42:36;22.00;99.90
20070;DHT22;10195;50.868;4.382;2023-09-19T13:45:05;21.90;99.90
20070;DHT22;10195;50.868;4.382;2023-09-19T13:47:31;21.90;99.90
20070;DHT22;10195;50.868;4.382;2023-09-19T13:49:58;21.80;99.90
20070;DHT22;10195;50.868;4.382;2023-09-19T13:52:25;21.60;99.90
20070;DHT22;10195;50.868;4.382;2023-09-19T13:54:54;21.50;99.90
20070;DHT22;10195;50.868;4.382;2023-09-19T13:57:22;21.50;99.90
20070;DHT22;10195;50.868;4.382;2023-09-19T13:59:48;21.60;99.90
20070;DHT22;10195;50.868;4.382;2023-09-19T14:02:13;21.60;99.90
20070;DHT22;10195;50.868;4.382;2023-09-19T14:04:39;21.50;99.90
20070;DHT22;10195;50.868;4.382;2023-09-19T14:07:06;21.30;99.90
20070;DHT22;10195;50.868;4.382;2023-09-19T14:09:33;21.20;99.90
20070;DHT22;10195;50.868;4.382;2023-09-19T14:11:59;21.10;99.90
20070;DHT22;10195;50.868;4.382;2023-09-19T14:14:25;21.10;99.90
20070;DHT22;10195;50.868;4.382;2023-09-19T14:16:50;20.90;99.90
20070;DHT22;10195;50.868;4.382;2023-09-19T14:19:17;21.00;99.90
20070;DHT22;10195;50.868;4.382;2023-09-19T14:21:43;21.10;99.90
20070;DHT22;10195;50.868;4.382;2023-09-19T14:24:09;21.40;99.90
20070;DHT22;10195;50.868;4.382;2023-09-19T14:26:35;21.40;99.90
20070;DHT22;10195;50.868;4.382;2023-09-19T14:29:01;21.30;99.90
20070;DHT22;10195;50.868;4.382;2023-09-19T14:31:28;21.40;99.90
20070;DHT22;10195;50.868;4.382;2023-09-19T14:33:54;21.60;99.90
20070;DHT22;10195;50.868;4.382;2023-09-19T14:36:25;21.70;99.90
20070;DHT22;10195;50.868;4.382;2023-09-19T14:38:56;21.60;99.90
20070;DHT22;10195;50.868;4.382;2023-09-19T14:41:24;21.50;99.90
20070;DHT22;10195;50.868;4.382;2023-09-19T14:43:54;21.40;99.90
20070;DHT22;10195;50.868;4.382;2023-09-19T14:46:21;21.30;99.90
20070;DHT22;10195;50.868;4.382;2023-09-19T14:48:46;21.20;99.90
20070;DHT22;10195;50.868;4.382;2023-09-19T14:51:13;21.20;99.90
20070;DHT22;10195;50.868;4.382;2023-09-19T14:53:39;21.20;99.90
20070;DHT22;10195;50.868;4.382;2023-09-19T14:56:08;21.10;99.90
20070;DHT22;10195;50.868;4.382;2023-09-19T14:58:35;21.10;99.90
20070;DHT22;10195;50.868;4.382;2023-09-19T15:01:12;21.00;99.90
20070;DHT22;10195;50.868;4.382;2023-09-19T15:03:39;21.00;99.90
20070;DHT22;10195;50.868;4.382;2023-09-19T15:06:15;20.90;99.90
20070;DHT22;10195;50.868;4.382;2023-09-19T15:08:43;21.00;99.90
20070;DHT22;10195;50.868;4.382;2023-09-19T15:11:19;21.00;99.90
20070;DHT22;10195;50.868;4.382;2023-09-19T15:13:47;21.00;99.90
20070;DHT22;10195;50.868;4.382;2023-09-19T15:16:13;21.10;99.90
20070;DHT22;10195;50.868;4.382;2023-09-19T15:18:44;21.20;99.90
20070;DHT22;10195;50.868;4.382;2023-09-19T15:21:13;21.10;99.90
20070;DHT22;10195;50.868;4.382;2023-09-19T15:23:41;21.10;99.90
20070;DHT22;10195;50.868;4.382;2023-09-19T15:26:09;20.90;99.90
20070;DHT22;10195;50.868;4.382;2023-09-19T15:28:35;20.90;99.90
20070;DHT22;10195;50.868;4.382;2023-09-19T15:31:07;21.00;99.90
20070;DHT22;10195;50.868;4.382;2023-09-19T15:33:33;20.90;99.90
20070;DHT22;10195;50.868;4.382;2023-09-19T15:38:32;20.70;99.90
20070;DHT22;10195;50.868;4.382;2023-09-19T15:41:19;20.60;99.90
20070;DHT22;10195;50.868;4.382;2023-09-19T15:43:46;20.50;99.90
20070;DHT22;10195;50.868;4.382;2023-09-19T15:46:11;20.50;99.90
20070;DHT22;10195;50.868;4.382;2023-09-19T15:48:39;20.60;99.90
20070;DHT22;10195;50.868;4.382;2023-09-19T15:51:04;20.60;99.90
20070;DHT22;10195;50.868;4.382;2023-09-19T15:53:50;20.60;99.90
20070;DHT22;10195;50.868;4.382;2023-09-19T15:56:17;20.70;99.90
20070;DHT22;10195;50.868;4.382;2023-09-19T15:58:47;20.60;99.90
20070;DHT22;10195;50.868;4.382;2023-09-19T16:01:14;20.60;99.90
20070;DHT22;10195;50.868;4.382;2023-09-19T16:03:52;20.50;99.90
20070;DHT22;10195;50.868;4.382;2023-09-19T16:06:28;20.40;99.90
20070;DHT22;10195;50.868;4.382;2023-09-19T16:08:55;20.40;99.90
20070;DHT22;10195;50.868;4.382;2023-09-19T16:11:22;20.40;99.90
20070;DHT22;10195;50.868;4.382;2023-09-19T16:13:49;20.30;99.90
20070;DHT22;10195;50.868;4.382;2023-09-19T16:16:16;20.30;99.90
20070;DHT22;10195;50.868;4.382;2023-09-19T16:19:02;20.40;99.90
20070;DHT22;10195;50.868;4.382;2023-09-19T16:21:33;20.30;99.90
20070;DHT22;10195;50.868;4.382;2023-09-19T16:24:02;20.30;99.90
20070;DHT22;10195;50.868;4.382;2023-09-19T16:26:29;20.30;99.90
20070;DHT22;10195;50.868;4.382;2023-09-19T16:28:56;20.30;99.90